Time;durP1;ratioP1;P1;durP2;ratioP2;P2;SDS_P1;SDS_P2;PMS_P1;PMS_P2;Temp;Humidity;BMP_temperature;BMP_pressure;BME280_temperature;BME280_humidity;BME280_pressure;Samples;Min_cycle;Max_cycle;Signal;HPM_P1;HPM_P2
2022/07/10 00:00:26;;;;;;;8.70;4.95;;;15.50;99.90;;;;;;5057136;28;20017;-74
2022/07/10 00:02:54;;;;;;;7.20;5.38;;;15.50;99.90;;;;;;5074150;28;20028;-75
2022/07/10 00:05:21;;;;;;;8.20;5.43;;;15.50;99.90;;;;;;5073971;28;20036;-74
2022/07/10 00:07:47;;;;;;;6.57;5.07;;;15.30;99.90;;;;;;5074096;28;20031;-74
2022/07/10 00:10:13;;;;;;;6.75;4.80;;;15.30;99.90;;;;;;5055683;28;20505;-74
2022/07/10 00:12:39;;;;;;;8.25;5.07;;;15.50;99.90;;;;;;5055739;28;20028;-74
2022/07/10 00:15:05;;;;;;;11.02;4.78;;;15.60;99.90;;;;;;5073744;28;20070;-74
2022/07/10 00:17:35;;;;;;;6.82;5.00;;;15.60;99.90;;;;;;5073844;28;20475;-74
2022/07/10 00:20:01;;;;;;;5.28;4.68;;;15.80;99.90;;;;;;5054817;28;20021;-74
2022/07/10 00:22:26;;;;;;;12.45;4.90;;;15.70;99.90;;;;;;5035328;28;20021;-74
2022/07/10 00:24:52;;;;;;;8.70;4.05;;;15.80;99.90;;;;;;5053631;28;20025;-74
2022/07/10 00:27:18;;;;;;;7.07;4.25;;;15.80;99.90;;;;;;5053599;28;20161;-74
2022/07/10 00:29:43;;;;;;;8.57;4.68;;;15.90;99.90;;;;;;5053554;28;20534;-74
2022/07/10 00:32:09;;;;;;;6.85;3.78;;;15.80;99.90;;;;;;5052923;28;20099;-74
2022/07/10 00:34:35;;;;;;;8.80;4.03;;;15.40;99.90;;;;;;5053416;28;20187;-74
2022/07/10 00:37:01;;;;;;;8.45;3.88;;;15.70;99.90;;;;;;5053889;28;20079;-74
2022/07/10 00:39:27;;;;;;;7.75;4.18;;;15.80;99.90;;;;;;5053528;28;20021;-74
2022/07/10 00:41:52;;;;;;;10.85;4.68;;;15.70;99.90;;;;;;5064244;28;20035;-74
2022/07/10 00:44:18;;;;;;;14.63;4.55;;;15.60;99.90;;;;;;5055479;28;20028;-74
2022/07/10 00:46:43;;;;;;;8.50;3.33;;;15.80;99.90;;;;;;5055545;28;20048;-75
2022/07/10 00:49:09;;;;;;;6.30;3.20;;;15.70;99.90;;;;;;5055269;28;20123;-75
2022/07/10 00:51:36;;;;;;;7.88;3.42;;;15.60;99.90;;;;;;5037895;28;20033;-75
2022/07/10 00:54:02;;;;;;;7.97;3.10;;;15.60;99.90;;;;;;5057621;28;20382;-75
2022/07/10 00:56:28;;;;;;;7.80;2.95;;;15.60;99.90;;;;;;5070311;28;20024;-75
2022/07/10 00:58:54;;;;;;;9.73;2.92;;;15.50;99.90;;;;;;5057550;28;20048;-75
2022/07/10 01:01:22;;;;;;;5.70;2.83;;;15.50;99.90;;;;;;5072655;28;20028;-75
2022/07/10 01:03:48;;;;;;;9.68;3.00;;;15.50;99.90;;;;;;5055015;28;20082;-75
2022/07/10 01:06:15;;;;;;;6.57;2.63;;;15.40;99.90;;;;;;5073006;28;20479;-75
2022/07/10 01:08:41;;;;;;;8.68;2.97;;;15.60;99.90;;;;;;5072759;28;20399;-75
2022/07/10 01:11:09;;;;;;;7.53;2.90;;;15.40;99.90;;;;;;5072126;28;20532;-75
2022/07/10 01:13:36;;;;;;;8.52;2.90;;;15.40;99.90;;;;;;5072666;28;20077;-75
2022/07/10 01:16:02;;;;;;;6.10;2.80;;;15.40;99.90;;;;;;5072786;28;20038;-74
2022/07/10 01:18:28;;;;;;;5.93;2.53;;;15.30;99.90;;;;;;5054629;28;20023;-73
2022/07/10 01:20:56;;;;;;;4.60;2.15;;;15.30;99.90;;;;;;5072012;28;20025;-73
2022/07/10 01:23:23;;;;;;;5.57;2.20;;;15.10;99.90;;;;;;5072544;28;20028;-73
2022/07/10 01:25:49;;;;;;;5.28;2.78;;;14.90;99.90;;;;;;5072390;28;20047;-73
2022/07/10 01:28:16;;;;;;;5.93;2.13;;;14.90;99.90;;;;;;5072477;28;20111;-73
2022/07/10 01:30:43;;;;;;;8.27;2.60;;;14.90;99.90;;;;;;5071186;28;20060;-73
2022/07/10 01:33:08;;;;;;;7.90;2.95;;;14.90;99.90;;;;;;5072796;28;20029;-73
2022/07/10 01:35:34;;;;;;;6.72;2.30;;;14.90;99.90;;;;;;5054389;28;20086;-73
2022/07/10 01:37:59;;;;;;;4.18;2.20;;;14.80;99.90;;;;;;5072102;28;20025;-74
2022/07/10 01:40:25;;;;;;;5.95;2.20;;;14.80;99.90;;;;;;5071639;28;20025;-74
2022/07/10 01:42:50;;;;;;;5.80;2.45;;;14.80;99.90;;;;;;5072162;28;20028;-73
2022/07/10 01:45:17;;;;;;;6.90;2.30;;;14.60;99.90;;;;;;5072170;28;20055;-74
2022/07/10 01:47:43;;;;;;;5.68;2.30;;;14.70;99.90;;;;;;5072020;28;20493;-74
2022/07/10 01:50:09;;;;;;;7.97;2.38;;;14.70;99.90;;;;;;5067220;28;20031;-74
2022/07/10 01:52:35;;;;;;;5.35;2.10;;;14.70;99.90;;;;;;5038820;28;20032;-74
2022/07/10 01:55:01;;;;;;;3.05;2.03;;;14.60;99.90;;;;;;5051987;28;20100;-73
2022/07/10 01:57:27;;;;;;;3.90;2.13;;;14.50;99.90;;;;;;5060499;28;20430;-73
2022/07/10 01:59:52;;;;;;;7.15;2.20;;;14.40;99.90;;;;;;5052023;28;20040;-75
2022/07/10 02:02:18;;;;;;;5.05;1.92;;;14.50;99.90;;;;;;5051333;28;20025;-75
2022/07/10 02:04:44;;;;;;;8.75;2.28;;;14.30;99.90;;;;;;5033944;28;20459;-75
2022/07/10 02:07:11;;;;;;;3.30;2.00;;;14.20;99.90;;;;;;5051671;28;20442;-75
2022/07/10 02:09:38;;;;;;;7.50;2.00;;;14.00;99.90;;;;;;5052117;28;20059;-75
2022/07/10 02:12:05;;;;;;;5.05;2.10;;;13.90;99.90;;;;;;5051055;28;20017;-75
2022/07/10 02:14:31;;;;;;;4.75;1.92;;;13.80;99.90;;;;;;5051710;28;20399;-75
2022/07/10 02:16:57;;;;;;;3.97;2.10;;;13.80;99.90;;;;;;5051594;28;20024;-75
2022/07/10 02:19:23;;;;;;;3.25;1.80;;;13.90;99.90;;;;;;5052267;28;20025;-75
2022/07/10 02:21:48;;;;;;;4.80;2.08;;;13.80;99.90;;;;;;5052839;28;20071;-75
2022/07/10 02:24:14;;;;;;;5.18;1.73;;;14.00;99.90;;;;;;5071611;28;20028;-75
2022/07/10 02:26:39;;;;;;;3.20;1.90;;;13.90;99.90;;;;;;5053619;28;20031;-74
2022/07/10 02:29:05;;;;;;;2.90;1.88;;;13.60;99.90;;;;;;5071567;28;20032;-75
2022/07/10 02:31:34;;;;;;;5.15;1.90;;;13.60;99.90;;;;;;5070724;28;20029;-75
2022/07/10 02:34:00;;;;;;;7.15;2.25;;;13.40;99.90;;;;;;5071395;28;20052;-76
2022/07/10 02:36:25;;;;;;;7.90;2.00;;;13.40;99.90;;;;;;5071375;28;20071;-75
2022/07/10 02:38:51;;;;;;;4.35;1.70;;;13.40;99.90;;;;;;5071666;28;20016;-76
2022/07/10 02:41:16;;;;;;;3.53;1.60;;;13.50;99.90;;;;;;5053083;28;20074;-74
2022/07/10 02:43:42;;;;;;;4.20;1.58;;;13.50;99.90;;;;;;5053680;28;20081;-75
2022/07/10 02:46:08;;;;;;;3.20;1.50;;;13.30;99.90;;;;;;5071339;28;20020;-74
2022/07/10 02:48:34;;;;;;;5.13;2.10;;;13.40;99.90;;;;;;5071616;28;20017;-74
2022/07/10 02:50:59;;;;;;;5.72;1.95;;;13.40;99.90;;;;;;5059064;28;20051;-74
2022/07/10 02:53:25;;;;;;;4.97;1.77;;;13.20;99.90;;;;;;5052311;28;20032;-74
2022/07/10 02:55:50;;;;;;;4.20;1.85;;;13.10;99.90;;;;;;5051689;28;20021;-74
2022/07/10 02:58:17;;;;;;;4.45;1.80;;;12.90;99.90;;;;;;5051739;28;20032;-75
2022/07/10 03:00:43;;;;;;;3.42;1.90;;;13.20;99.90;;;;;;5033353;28;20074;-74
2022/07/10 03:03:09;;;;;;;4.85;1.85;;;13.30;99.90;;;;;;5051795;28;20025;-74
2022/07/10 03:05:34;;;;;;;6.20;1.80;;;13.00;99.90;;;;;;5050982;28;20048;-74
2022/07/10 03:08:00;;;;;;;5.93;2.13;;;13.00;99.90;;;;;;5051228;28;20029;-74
2022/07/10 03:10:26;;;;;;;6.40;2.03;;;12.90;99.90;;;;;;5032675;28;20037;-74
2022/07/10 03:12:52;;;;;;;5.50;2.10;;;12.90;99.90;;;;;;5064262;28;20039;-74
2022/07/10 03:15:17;;;;;;;4.68;2.10;;;12.80;99.90;;;;;;5070993;28;20017;-74
2022/07/10 03:17:44;;;;;;;6.07;2.30;;;12.90;99.90;;;;;;5071116;28;20021;-72
2022/07/10 03:20:10;;;;;;;2.92;1.90;;;13.10;99.90;;;;;;5053117;28;20502;-71
2022/07/10 03:22:36;;;;;;;5.75;2.17;;;13.00;99.90;;;;;;5052677;28;20526;-73
2022/07/10 03:25:02;;;;;;;7.05;2.40;;;13.10;99.90;;;;;;5070954;28;20063;-73
2022/07/10 03:27:28;;;;;;;7.05;2.20;;;12.90;99.90;;;;;;5070908;28;20028;-74
2022/07/10 03:29:54;;;;;;;5.53;2.22;;;13.00;99.90;;;;;;5070866;28;20444;-74
2022/07/10 03:32:19;;;;;;;6.35;2.55;;;13.30;99.90;;;;;;5052393;28;20462;-74
2022/07/10 03:34:45;;;;;;;5.82;2.30;;;12.90;99.90;;;;;;5070539;28;20036;-74
2022/07/10 03:37:10;;;;;;;6.38;2.60;;;13.00;99.90;;;;;;5070942;28;20498;-75
2022/07/10 03:39:36;;;;;;;6.97;2.70;;;12.80;99.90;;;;;;5070800;28;20023;-71
2022/07/10 03:42:01;;;;;;;5.95;2.47;;;12.60;99.90;;;;;;5070413;28;20066;-73
2022/07/10 03:44:27;;;;;;;6.75;2.28;;;12.50;99.90;;;;;;5070630;28;20078;-73
2022/07/10 03:46:53;;;;;;;3.80;2.05;;;12.50;99.90;;;;;;5070799;28;20106;-74
2022/07/10 03:49:19;;;;;;;7.47;2.00;;;12.60;99.90;;;;;;5052788;28;20035;-73
2022/07/10 03:51:44;;;;;;;4.10;2.40;;;12.70;99.90;;;;;;5052059;28;20108;-73
2022/07/10 03:54:10;;;;;;;7.07;2.50;;;12.70;99.90;;;;;;5051342;28;20422;-73
2022/07/10 03:59:19;;;;;;;4.57;2.10;;;12.80;99.90;;;;;;5042724;28;20083;-73
2022/07/10 04:01:45;;;;;;;12.50;2.47;;;13.00;99.90;;;;;;5053492;28;20029;-73
2022/07/10 04:04:11;;;;;;;6.22;1.83;;;13.10;99.90;;;;;;5054189;28;20031;-74
2022/07/10 04:06:38;;;;;;;7.85;2.47;;;12.90;99.90;;;;;;5054491;28;20033;-75
2022/07/10 04:09:04;;;;;;;6.60;2.10;;;13.00;99.90;;;;;;5039724;28;20078;-73
2022/07/10 04:11:30;;;;;;;8.07;2.30;;;13.30;99.90;;;;;;5063478;28;20031;-74
2022/07/10 04:13:56;;;;;;;6.30;2.45;;;13.50;99.90;;;;;;5063285;28;20033;-73
2022/07/10 04:16:22;;;;;;;4.32;2.00;;;13.20;99.90;;;;;;5052433;28;20501;-73
2022/07/10 04:18:48;;;;;;;4.40;2.00;;;13.10;99.90;;;;;;5052904;28;20108;-73
2022/07/10 04:21:14;;;;;;;6.72;2.38;;;13.10;99.90;;;;;;5053251;28;20116;-73
2022/07/10 04:23:40;;;;;;;6.40;2.30;;;13.20;99.90;;;;;;5053846;28;20017;-73
2022/07/10 04:26:05;;;;;;;5.43;2.10;;;13.20;99.90;;;;;;5054058;28;20029;-74
2022/07/10 04:28:31;;;;;;;5.72;2.17;;;13.30;99.90;;;;;;5053684;28;20021;-73
2022/07/10 04:30:56;;;;;;;6.22;2.03;;;13.30;99.90;;;;;;5052884;28;20036;-74
2022/07/10 04:33:22;;;;;;;4.25;1.92;;;13.30;99.90;;;;;;5053544;28;20076;-74
2022/07/10 04:35:48;;;;;;;6.38;1.70;;;13.40;99.90;;;;;;5054508;28;20063;-73
2022/07/10 04:38:13;;;;;;;6.63;2.00;;;13.40;99.90;;;;;;5073576;28;20486;-74
2022/07/10 04:40:39;;;;;;;2.45;1.70;;;13.40;99.90;;;;;;5072823;28;20035;-74
2022/07/10 04:43:04;;;;;;;7.45;2.20;;;13.50;99.90;;;;;;5073368;28;20068;-74
2022/07/10 04:45:30;;;;;;;5.30;1.80;;;13.30;99.90;;;;;;5073222;28;20033;-74
2022/07/10 04:47:56;;;;;;;5.03;2.22;;;13.30;99.90;;;;;;5073315;28;20055;-74
2022/07/10 04:50:21;;;;;;;3.92;1.75;;;13.50;99.90;;;;;;5066081;28;20021;-74
2022/07/10 04:52:47;;;;;;;5.53;1.92;;;13.30;99.90;;;;;;5053193;28;20090;-74
2022/07/10 04:55:12;;;;;;;3.75;1.60;;;13.20;99.90;;;;;;5053112;28;20051;-73
2022/07/10 04:57:39;;;;;;;5.22;1.77;;;13.40;99.90;;;;;;5053124;28;20025;-74
2022/07/10 05:00:05;;;;;;;3.70;1.67;;;13.00;99.90;;;;;;5052954;28;20518;-74
2022/07/10 05:02:30;;;;;;;7.15;1.90;;;13.00;99.90;;;;;;5052465;28;20487;-74
2022/07/10 05:04:56;;;;;;;4.07;1.70;;;12.90;99.90;;;;;;5052301;28;20058;-73
2022/07/10 05:07:22;;;;;;;5.00;1.95;;;13.30;99.90;;;;;;5052412;28;20479;-74
2022/07/10 05:09:47;;;;;;;8.10;1.98;;;13.20;99.90;;;;;;5052916;28;20475;-73
2022/07/10 05:12:13;;;;;;;3.95;2.22;;;13.10;99.90;;;;;;5052133;28;20394;-73
2022/07/10 05:14:38;;;;;;;2.80;1.50;;;13.30;99.90;;;;;;5052668;28;20100;-74
2022/07/10 05:17:04;;;;;;;4.32;1.80;;;13.50;99.90;;;;;;5052705;28;20057;-74
2022/07/10 05:19:29;;;;;;;5.15;2.13;;;13.40;99.90;;;;;;5052864;28;20071;-73
2022/07/10 05:21:55;;;;;;;4.82;1.65;;;13.60;99.90;;;;;;5052168;28;20029;-74
2022/07/10 05:24:20;;;;;;;6.53;1.70;;;13.30;99.90;;;;;;5052490;28;20549;-73
2022/07/10 05:26:46;;;;;;;4.60;2.28;;;13.40;99.90;;;;;;5052534;28;20550;-73
2022/07/10 05:29:11;;;;;;;7.88;2.10;;;13.50;99.90;;;;;;5066043;28;20037;-74
2022/07/10 05:31:37;;;;;;;3.63;1.90;;;13.50;99.90;;;;;;5071868;28;20439;-74
2022/07/10 05:34:03;;;;;;;3.97;1.55;;;13.60;99.90;;;;;;5072213;28;20090;-74
2022/07/10 05:36:28;;;;;;;5.28;1.50;;;13.80;99.90;;;;;;5072439;28;20020;-74
2022/07/10 05:38:54;;;;;;;3.45;1.40;;;13.80;99.90;;;;;;5072322;28;20482;-74
2022/07/10 05:41:19;;;;;;;7.35;2.20;;;13.50;99.90;;;;;;5071664;28;20630;-74
2022/07/10 05:43:45;;;;;;;5.13;1.55;;;13.60;99.90;;;;;;5072222;28;20490;-74
2022/07/10 05:46:10;;;;;;;5.30;1.83;;;13.70;99.90;;;;;;5072055;28;20081;-73
2022/07/10 05:48:38;;;;;;;5.40;1.55;;;13.90;99.90;;;;;;5072227;28;20032;-73
2022/07/10 05:51:04;;;;;;;4.38;1.65;;;13.90;99.90;;;;;;5041045;28;20033;-74
2022/07/10 05:53:29;;;;;;;3.42;1.30;;;14.10;99.90;;;;;;5052211;28;20070;-74
2022/07/10 05:55:59;;;;;;;3.72;1.58;;;14.10;99.90;;;;;;5051926;28;20502;-74
2022/07/10 05:58:24;;;;;;;4.57;1.23;;;13.90;99.90;;;;;;5052008;28;20040;-74
2022/07/10 06:00:50;;;;;;;3.58;1.30;;;13.70;99.90;;;;;;5051187;28;20025;-74
2022/07/10 06:03:16;;;;;;;3.58;1.27;;;13.80;99.90;;;;;;5052040;28;20036;-74
2022/07/10 06:05:42;;;;;;;4.13;1.15;;;14.10;99.90;;;;;;5051815;28;20101;-73
2022/07/10 06:08:07;;;;;;;2.90;1.10;;;14.10;99.90;;;;;;5051752;28;20104;-74
2022/07/10 06:10:33;;;;;;;4.13;1.13;;;13.90;99.90;;;;;;5051211;28;20059;-73
2022/07/10 06:12:59;;;;;;;3.17;1.02;;;13.90;99.90;;;;;;5033815;28;20482;-74
2022/07/10 06:15:24;;;;;;;2.00;1.20;;;14.10;99.90;;;;;;5059099;28;20524;-74
2022/07/10 06:17:50;;;;;;;4.53;0.90;;;13.90;99.90;;;;;;5071319;28;20394;-73
2022/07/10 06:20:15;;;;;;;3.55;1.40;;;14.20;99.90;;;;;;5071342;28;20064;-74
2022/07/10 06:22:41;;;;;;;4.10;1.25;;;14.50;99.90;;;;;;5072210;28;20059;-73
2022/07/10 06:25:08;;;;;;;7.32;1.10;;;14.50;99.90;;;;;;5071677;28;20071;-74
2022/07/10 06:27:34;;;;;;;5.40;1.50;;;14.20;99.90;;;;;;5071560;28;20032;-74
2022/07/10 06:30:00;;;;;;;1.92;0.73;;;14.00;99.90;;;;;;5046733;28;20029;-74
2022/07/10 06:32:26;;;;;;;3.90;1.00;;;13.70;99.90;;;;;;5050921;28;20116;-74
2022/07/10 06:34:53;;;;;;;5.53;1.25;;;13.90;99.90;;;;;;5051272;28;20056;-74
2022/07/10 06:37:19;;;;;;;4.00;1.00;;;13.90;99.90;;;;;;5051485;28;20033;-73
2022/07/10 06:39:48;;;;;;;4.63;1.00;;;13.90;99.90;;;;;;5051437;28;20433;-73
2022/07/10 06:42:14;;;;;;;4.78;1.05;;;14.40;99.90;;;;;;5050673;28;20033;-73
2022/07/10 06:44:44;;;;;;;3.42;1.23;;;14.90;99.90;;;;;;5051332;28;20111;-74
2022/07/10 06:49:59;;;;;;;8.93;1.13;;;14.30;99.90;;;;;;5051736;28;20151;-74
2022/07/10 06:52:25;;;;;;;7.78;1.27;;;14.30;99.90;;;;;;5032581;28;20033;-74
2022/07/10 06:54:52;;;;;;;5.72;1.13;;;14.20;99.90;;;;;;5033092;28;20021;-74
2022/07/10 06:57:19;;;;;;;2.33;0.90;;;14.40;99.90;;;;;;5051130;28;20049;-74
2022/07/10 06:59:45;;;;;;;6.13;1.00;;;14.20;99.90;;;;;;5051203;28;20014;-74
2022/07/10 07:02:10;;;;;;;4.07;0.90;;;14.70;99.90;;;;;;5050561;28;20029;-74
2022/07/10 07:04:36;;;;;;;4.90;1.00;;;14.70;99.90;;;;;;5051154;28;20039;-74
2022/07/10 07:07:02;;;;;;;3.38;1.20;;;14.90;99.90;;;;;;5051132;28;20067;-74
2022/07/10 07:09:28;;;;;;;2.67;0.80;;;15.50;99.90;;;;;;5051137;28;20029;-74
2022/07/10 07:11:54;;;;;;;1.88;0.70;;;15.60;99.90;;;;;;5050419;28;20368;-74
2022/07/10 07:14:19;;;;;;;2.53;0.90;;;15.10;99.90;;;;;;5051075;28;20493;-74
2022/07/10 07:16:46;;;;;;;3.40;0.75;;;14.80;99.90;;;;;;5051065;28;20056;-74
2022/07/10 07:19:17;;;;;;;3.53;0.80;;;14.90;99.90;;;;;;5051138;28;20039;-74
2022/07/10 07:24:27;;;;;;;5.55;1.00;;;14.80;99.90;;;;;;5051394;28;20036;-74
2022/07/10 07:26:53;;;;;;;2.45;0.60;;;15.00;99.90;;;;;;5050973;28;20033;-74
2022/07/10 07:29:19;;;;;;;3.10;0.65;;;14.70;99.90;;;;;;5052210;28;20029;-74
2022/07/10 07:31:44;;;;;;;1.80;0.77;;;14.60;99.90;;;;;;5054120;28;20035;-74
2022/07/10 07:34:11;;;;;;;4.25;0.75;;;14.70;99.90;;;;;;5054554;28;20380;-74
2022/07/10 07:36:37;;;;;;;2.63;0.90;;;14.60;99.90;;;;;;5054669;28;20032;-73
2022/07/10 07:39:03;;;;;;;2.78;0.80;;;14.70;99.90;;;;;;5054547;28;20017;-74
2022/07/10 07:41:29;;;;;;;4.10;0.90;;;14.90;99.90;;;;;;5054065;28;20029;-74
2022/07/10 07:43:54;;;;;;;8.65;1.02;;;14.90;99.90;;;;;;5068885;28;20035;-74
2022/07/10 07:46:21;;;;;;;3.55;0.60;;;15.00;99.90;;;;;;5074839;28;20023;-74
2022/07/10 07:48:46;;;;;;;2.70;0.88;;;14.80;99.90;;;;;;5074723;28;20386;-74
2022/07/10 07:51:13;;;;;;;4.35;0.90;;;14.90;99.90;;;;;;5060298;28;20025;-74
2022/07/10 07:53:39;;;;;;;4.03;1.00;;;15.10;99.90;;;;;;5069165;28;20017;-73
2022/07/10 07:56:04;;;;;;;3.85;0.90;;;15.20;99.90;;;;;;5074373;28;20116;-74
2022/07/10 07:58:30;;;;;;;3.67;0.80;;;15.20;99.90;;;;;;5036953;28;20103;-73
2022/07/10 08:00:56;;;;;;;3.35;0.98;;;15.20;99.90;;;;;;5053582;28;20443;-74
2022/07/10 08:03:22;;;;;;;2.00;0.70;;;15.20;99.90;;;;;;5054207;28;20025;-74
2022/07/10 08:05:48;;;;;;;2.90;0.98;;;14.60;99.90;;;;;;5054165;28;20125;-74
2022/07/10 08:08:14;;;;;;;2.13;0.70;;;14.50;99.90;;;;;;5054097;28;20081;-74
2022/07/10 08:10:39;;;;;;;2.35;0.70;;;14.90;99.90;;;;;;5035643;28;20115;-73
2022/07/10 08:13:05;;;;;;;2.50;0.80;;;15.20;99.90;;;;;;5051104;28;20447;-74
2022/07/10 08:15:30;;;;;;;1.70;0.70;;;15.00;99.90;;;;;;5074030;28;20021;-74
2022/07/10 08:17:57;;;;;;;1.65;0.60;;;15.30;99.90;;;;;;5074019;28;20060;-74
2022/07/10 08:20:24;;;;;;;2.63;0.73;;;15.30;99.90;;;;;;5073231;28;20391;-74
2022/07/10 08:22:52;;;;;;;2.20;1.05;;;15.50;99.90;;;;;;5073850;28;20020;-74
2022/07/10 08:25:18;;;;;;;2.78;0.80;;;15.60;99.90;;;;;;5073768;28;20035;-74
2022/07/10 08:27:44;;;;;;;2.45;0.80;;;15.80;99.90;;;;;;5073710;28;20188;-74
2022/07/10 08:30:10;;;;;;;1.05;0.55;;;15.10;99.90;;;;;;5073784;28;20037;-74
2022/07/10 08:32:37;;;;;;;3.33;0.80;;;15.20;99.90;;;;;;5055201;28;20116;-74
2022/07/10 08:35:04;;;;;;;1.98;0.90;;;15.00;99.90;;;;;;5073403;28;20394;-74
2022/07/10 08:37:29;;;;;;;3.65;0.70;;;15.20;99.90;;;;;;5073619;28;20028;-74
2022/07/10 08:39:55;;;;;;;4.60;0.80;;;15.50;99.90;;;;;;5073284;28;20021;-74
2022/07/10 08:42:22;;;;;;;0.85;0.68;;;15.60;99.90;;;;;;5072796;28;20029;-74
2022/07/10 08:44:48;;;;;;;1.77;0.60;;;15.70;99.90;;;;;;5073388;28;20040;-74
2022/07/10 08:47:14;;;;;;;2.00;0.63;;;15.80;99.90;;;;;;5055327;28;20029;-74
2022/07/10 08:49:46;;;;;;;1.42;0.50;;;15.60;99.90;;;;;;5054707;28;20020;-73
2022/07/10 08:52:36;;;;;;;4.85;0.80;;;16.00;99.90;;;;;;5052141;28;20074;-74
2022/07/10 08:55:02;;;;;;;3.13;0.60;;;16.00;99.90;;;;;;5053323;28;20021;-74
2022/07/10 08:57:31;;;;;;;3.15;0.60;;;15.50;99.90;;;;;;5053227;28;20430;-74
2022/07/10 08:59:57;;;;;;;2.08;0.75;;;15.10;99.90;;;;;;5035274;28;20037;-73
2022/07/10 09:02:22;;;;;;;4.15;0.82;;;15.50;99.90;;;;;;5053083;28;20033;-74
2022/07/10 09:04:48;;;;;;;2.35;0.50;;;15.30;99.90;;;;;;5052949;28;20032;-73
2022/07/10 09:07:14;;;;;;;4.35;0.70;;;15.00;99.90;;;;;;5053021;28;20021;-73
2022/07/10 09:09:56;;;;;;;4.45;0.70;;;14.70;99.90;;;;;;5053185;28;20024;-74
2022/07/10 09:12:22;;;;;;;1.15;0.60;;;14.60;99.90;;;;;;5052102;28;20017;-73
2022/07/10 09:14:49;;;;;;;2.20;0.70;;;14.80;99.90;;;;;;5052776;28;20028;-74
2022/07/10 09:17:14;;;;;;;2.50;0.73;;;14.80;99.90;;;;;;5034908;28;20029;-74
2022/07/10 09:19:42;;;;;;;2.67;0.60;;;14.40;99.90;;;;;;5052729;28;20032;-74
2022/07/10 09:22:09;;;;;;;1.98;0.60;;;14.30;99.90;;;;;;5052068;28;20349;-74
2022/07/10 09:24:39;;;;;;;3.33;0.80;;;14.40;99.90;;;;;;5052560;28;20025;-73
2022/07/10 09:27:06;;;;;;;3.88;0.80;;;14.20;99.90;;;;;;5052651;28;20497;-74
2022/07/10 09:29:33;;;;;;;1.98;0.65;;;14.50;99.90;;;;;;5052585;28;20029;-74
2022/07/10 09:32:01;;;;;;;1.63;0.70;;;14.70;99.90;;;;;;5051887;28;20021;-74
2022/07/10 09:34:39;;;;;;;3.22;0.68;;;14.90;99.90;;;;;;5052672;28;20491;-74
2022/07/10 09:37:22;;;;;;;2.28;0.70;;;15.00;99.90;;;;;;5052776;28;20033;-73
2022/07/10 09:40:05;;;;;;;4.25;0.90;;;15.10;99.90;;;;;;5052568;28;20052;-73
2022/07/10 09:42:39;;;;;;;2.58;0.68;;;15.10;99.90;;;;;;5051751;28;20488;-73
2022/07/10 09:45:20;;;;;;;2.25;0.80;;;14.60;99.90;;;;;;5052211;28;20057;-73
2022/07/10 09:47:56;;;;;;;2.90;0.90;;;14.90;99.90;;;;;;5034456;28;20029;-73
2022/07/10 09:50:26;;;;;;;3.47;0.90;;;14.90;99.90;;;;;;5051349;28;20057;-73
2022/07/10 09:52:53;;;;;;;2.97;1.33;;;15.10;99.90;;;;;;5051430;28;20029;-74
2022/07/10 09:55:20;;;;;;;1.95;0.90;;;14.90;99.90;;;;;;5034197;28;20398;-73
2022/07/10 09:57:56;;;;;;;3.30;0.82;;;15.10;99.90;;;;;;5052168;28;20021;-73
2022/07/10 10:00:30;;;;;;;2.13;1.00;;;15.40;99.90;;;;;;5051381;28;20482;-73
2022/07/10 10:02:58;;;;;;;2.88;0.80;;;16.10;99.90;;;;;;5052038;28;20111;-74
2022/07/10 10:05:50;;;;;;;3.17;0.80;;;16.40;99.90;;;;;;5051632;28;20430;-73
2022/07/10 10:08:28;;;;;;;4.72;0.88;;;16.40;99.90;;;;;;5051286;28;20368;-73
2022/07/10 10:10:57;;;;;;;1.70;0.77;;;16.40;99.90;;;;;;5050888;28;20099;-73
2022/07/10 10:13:27;;;;;;;2.72;0.80;;;16.30;99.90;;;;;;5037748;28;20020;-73
2022/07/10 10:15:53;;;;;;;3.28;0.80;;;16.30;99.90;;;;;;5071868;28;20063;-74
2022/07/10 10:18:26;;;;;;;4.25;1.10;;;16.20;99.90;;;;;;5071539;28;20447;-74
2022/07/10 10:20:54;;;;;;;2.30;1.15;;;15.90;99.90;;;;;;5070925;28;20592;-73
2022/07/10 10:23:24;;;;;;;1.95;0.90;;;16.40;99.90;;;;;;5071490;28;20052;-73
2022/07/10 10:25:53;;;;;;;0.90;0.65;;;16.50;99.90;;;;;;5071459;28;20021;-73
2022/07/10 10:28:23;;;;;;;1.48;0.80;;;16.60;99.90;;;;;;5071529;28;20024;-74
2022/07/10 10:30:51;;;;;;;2.85;0.80;;;16.50;99.90;;;;;;5070998;28;20063;-74
2022/07/10 10:33:31;;;;;;;2.83;0.65;;;16.20;99.90;;;;;;5071542;28;20064;-73
2022/07/10 10:36:00;;;;;;;2.88;0.80;;;16.20;99.90;;;;;;5071398;28;20064;-73
2022/07/10 10:38:48;;;;;;;3.10;0.80;;;16.20;99.90;;;;;;5061545;28;20205;-73
2022/07/10 10:41:27;;;;;;;2.72;0.70;;;16.00;99.90;;;;;;5050767;28;20021;-73
2022/07/10 10:44:08;;;;;;;5.03;1.02;;;16.30;99.90;;;;;;5051131;28;20025;-73
2022/07/10 10:46:34;;;;;;;3.08;0.70;;;15.90;99.90;;;;;;5035153;28;20013;-73
2022/07/10 10:49:08;;;;;;;1.45;0.70;;;16.30;99.90;;;;;;5051708;28;20096;-73
2022/07/10 10:52:03;;;;;;;1.75;0.50;;;16.00;99.90;;;;;;5051210;28;20079;-73
2022/07/10 10:54:31;;;;;;;3.47;0.80;;;16.80;99.90;;;;;;5035007;28;20037;-73
2022/07/10 10:57:12;;;;;;;2.20;0.70;;;16.90;99.90;;;;;;5051246;28;20091;-74
2022/07/10 10:59:51;;;;;;;0.82;0.60;;;16.50;99.90;;;;;;5052548;28;20021;-74
2022/07/10 11:02:34;;;;;;;1.13;0.60;;;16.60;99.90;;;;;;5050635;28;20064;-73
2022/07/10 11:05:12;;;;;;;1.05;0.52;;;16.70;99.90;;;;;;5055098;28;20107;-74
2022/07/10 11:07:59;;;;;;;2.25;0.65;;;17.50;99.90;;;;;;5055291;28;20364;-74
2022/07/10 11:10:31;;;;;;;;;;;17.60;99.90;;;;;;5054860;28;20033;-74
2022/07/10 11:13:14;;;;;;;3.15;0.60;;;17.50;99.90;;;;;;5054951;28;19913;-73
2022/07/10 11:15:51;;;;;;;2.25;0.70;;;17.60;99.90;;;;;;5055243;28;20510;-73
2022/07/10 11:18:21;;;;;;;2.90;0.88;;;16.90;99.90;;;;;;5054974;28;20021;-73
2022/07/10 11:20:49;;;;;;;1.30;1.20;;;16.50;99.90;;;;;;5054703;28;20041;-74
2022/07/10 11:23:46;;;;;;;1.38;0.63;;;16.40;99.90;;;;;;5036987;28;20033;-73
2022/07/10 11:26:20;;;;;;;0.60;0.57;;;16.60;99.90;;;;;;5054917;28;20071;-73
2022/07/10 11:28:55;;;;;;;0.47;0.45;;;16.70;99.90;;;;;;5055242;28;20103;-74
2022/07/10 11:31:22;;;;;;;1.00;0.63;;;16.60;99.90;;;;;;5054140;28;20025;-74
2022/07/10 11:33:51;;;;;;;0.68;0.45;;;16.50;99.90;;;;;;5054666;28;20074;-73
2022/07/10 11:36:32;;;;;;;0.85;0.52;;;16.60;99.90;;;;;;5036787;28;20483;-74
2022/07/10 11:39:05;;;;;;;2.47;0.65;;;16.90;99.90;;;;;;5054926;28;20116;-73
2022/07/10 11:41:31;;;;;;;0.60;0.60;;;17.80;99.90;;;;;;5054059;28;20028;-74
2022/07/10 11:43:59;;;;;;;0.85;0.50;;;18.00;99.90;;;;;;5054731;28;20397;-73
2022/07/10 11:46:38;;;;;;;0.50;0.50;;;17.90;99.90;;;;;;5054530;28;20052;-74
2022/07/10 11:49:05;;;;;;;0.57;0.57;;;17.90;99.90;;;;;;5054542;28;20025;-74
2022/07/10 11:51:36;;;;;;;1.15;0.77;;;18.20;99.90;;;;;;5053745;28;20068;-74
2022/07/10 11:54:18;;;;;;;1.45;0.82;;;17.80;99.90;;;;;;5054343;28;20390;-73
2022/07/10 11:56:49;;;;;;;1.30;0.80;;;17.80;99.90;;;;;;5036448;28;20110;-73
2022/07/10 11:59:15;;;;;;;1.30;0.52;;;16.80;99.90;;;;;;5041795;28;20025;-73
2022/07/10 12:01:46;;;;;;;1.08;0.88;;;17.10;99.90;;;;;;5053599;28;20502;-74
2022/07/10 12:04:13;;;;;;;1.15;0.65;;;16.90;99.90;;;;;;5054099;28;20040;-74
2022/07/10 12:06:42;;;;;;;0.50;0.50;;;16.90;99.90;;;;;;5054196;28;20029;-73
2022/07/10 12:09:12;;;;;;;4.35;0.70;;;16.80;99.90;;;;;;5054215;28;20040;-73
2022/07/10 12:11:40;;;;;;;0.65;0.60;;;16.60;99.90;;;;;;5053139;28;20025;-74
2022/07/10 12:14:18;;;;;;;1.05;0.80;;;16.40;99.90;;;;;;5053881;28;20025;-74
2022/07/10 12:16:48;;;;;;;1.95;0.60;;;16.40;99.90;;;;;;5053817;28;20029;-73
2022/07/10 12:19:16;;;;;;;1.10;0.60;;;16.60;99.90;;;;;;5054097;28;20025;-73
2022/07/10 12:21:44;;;;;;;0.73;0.47;;;16.30;99.90;;;;;;5053252;28;20032;-74
2022/07/10 12:24:11;;;;;;;1.23;0.80;;;16.40;99.90;;;;;;5054106;28;20159;-74
2022/07/10 12:26:39;;;;;;;1.00;0.63;;;16.70;99.90;;;;;;5054120;28;20029;-73
2022/07/10 12:29:05;;;;;;;0.85;0.57;;;16.90;99.90;;;;;;5053765;28;20383;-73
2022/07/10 12:31:33;;;;;;;0.75;0.43;;;17.20;99.90;;;;;;5052850;28;20029;-73
2022/07/10 12:34:04;;;;;;;2.53;0.60;;;17.80;99.90;;;;;;5053538;28;20487;-73
2022/07/10 12:36:49;;;;;;;4.57;0.93;;;18.30;99.90;;;;;;5053498;28;20017;-73
2022/07/10 12:39:17;;;;;;;0.70;0.70;;;18.20;99.90;;;;;;5053655;28;20032;-73
2022/07/10 12:42:02;;;;;;;1.65;0.82;;;17.60;99.90;;;;;;5052913;28;20419;-73
2022/07/10 12:44:33;;;;;;;0.98;0.70;;;17.40;99.90;;;;;;5053830;28;20017;-73
2022/07/10 12:47:08;;;;;;;1.38;0.93;;;17.10;99.90;;;;;;5053264;28;20067;-74
2022/07/10 12:49:49;;;;;;;0.80;0.65;;;17.40;99.90;;;;;;5053553;28;20032;-74
2022/07/10 12:52:21;;;;;;;0.85;0.80;;;17.60;99.90;;;;;;5049900;28;20036;-74
2022/07/10 12:54:47;;;;;;;2.40;0.68;;;18.70;99.90;;;;;;5053297;28;20614;-73
2022/07/10 12:57:12;;;;;;;1.10;0.82;;;18.70;99.90;;;;;;5053114;28;20100;-74
2022/07/10 12:59:38;;;;;;;1.13;0.77;;;18.30;99.90;;;;;;5035243;28;20022;-73